Other Surface Observations
Issued by NWS Missoula, MT

Current Version | Previous Version | Text Only | Print | Product List | Glossary On
Versions: 1 2 3 4 5 6 7 8 9 10 11 12 13 14 15 16 17 18 19 20 21 22 23 24 25 26 27 28 29 30 31 32 33 34 35 36 37 38 39 40 41 42 43 44 45 46 47 48 49 50
000
SXUS55 KMSO 051123
OSOMSO
MONTANA AWOS SUMMARY
NATIONAL WEATHER SERVICE MISSOULA MT
523 AM MDT TUE MAY 5 2015

Montana AWOS Reports

LAUREL      |K6S8 051115Z AUTO 28004KT 25SM 06/02 A2982 RMK AO1 T00560017
TWIN BRIDGES|K7S1 051115Z AUTO 00000KT 40SM 07/M03 A2985 RMK AO1 T00671027
MALTA       |KM75 051115Z AUTO 05005KT 40SM 08/03 A2977 RMK AO1 T00830028
ROUNDUP     |KRPX 051115Z AUTO 00000KT 40SM 07/02 A2975 RMK AO1 T00670022




USA.gov is the U.S. government's official web portal to all federal, state and local government web resources and services.